createdAt,value
2022-09-09T00:01:23.576Z,11.10
2022-09-09T00:04:36.599Z,11.20
2022-09-09T00:07:44.441Z,11.30
2022-09-09T00:10:54.236Z,11.20
2022-09-09T00:14:00.256Z,11.20
2022-09-09T00:17:27.492Z,11.40
2022-09-09T00:20:35.043Z,11.40
2022-09-09T00:23:40.331Z,11.20
2022-09-09T00:26:49.885Z,11.00
2022-09-09T00:29:57.094Z,10.80
2022-09-09T00:33:16.082Z,10.60
2022-09-09T00:36:23.852Z,10.50
2022-09-09T00:39:48.885Z,10.50
2022-09-09T00:43:11.772Z,10.40
2022-09-09T00:46:24.247Z,10.60
2022-09-09T00:49:29.065Z,10.70
2022-09-09T00:53:13.224Z,10.70
2022-09-09T00:56:17.476Z,10.60
2022-09-09T00:59:28.673Z,10.70
2022-09-09T01:02:44.848Z,10.70
2022-09-09T01:05:52.695Z,10.60
2022-09-09T01:09:23.618Z,10.80
2022-09-09T01:12:30.996Z,10.60
2022-09-09T01:15:35.732Z,10.60
2022-09-09T01:18:44.292Z,10.60
2022-09-09T01:22:02.862Z,10.60
2022-09-09T01:25:28.904Z,10.30
2022-09-09T01:28:31.811Z,10.50
2022-09-09T01:31:53.036Z,10.50
2022-09-09T01:34:54.949Z,10.40
2022-09-09T01:37:57.027Z,10.30
2022-09-09T01:40:59.480Z,10.20
2022-09-09T01:44:01.747Z,10.20
2022-09-09T01:47:04.624Z,10.10
2022-09-09T01:50:09.248Z,10.20
2022-09-09T01:53:12.201Z,10.20
2022-09-09T01:56:32.197Z,10.00
2022-09-09T01:59:39.766Z,9.90
2022-09-09T02:02:47.572Z,9.80
2022-09-09T02:06:28.122Z,9.60
2022-09-09T02:09:31.652Z,9.50
2022-09-09T02:12:33.560Z,9.50
2022-09-09T02:15:47.916Z,9.70
2022-09-09T02:19:02.212Z,9.70
2022-09-09T02:22:04.988Z,10.00
2022-09-09T02:25:09.907Z,10.20
2022-09-09T02:28:13.807Z,10.20
2022-09-09T02:31:20.500Z,10.10
2022-09-09T02:34:25.247Z,10.00
2022-09-09T02:37:32.678Z,9.90
2022-09-09T02:40:34.624Z,9.80
2022-09-09T02:43:36.838Z,10.00
2022-09-09T02:46:47.618Z,9.90
2022-09-09T02:50:14.105Z,9.90
2022-09-09T02:53:21.817Z,9.90
2022-09-09T02:56:26.676Z,9.90
2022-09-09T02:59:31.333Z,9.80
2022-09-09T03:02:33.273Z,10.00
2022-09-09T03:05:35.417Z,10.10
2022-09-09T03:08:37.393Z,10.00
2022-09-09T03:11:40.220Z,10.00
2022-09-09T03:14:42.061Z,9.90
2022-09-09T03:17:44.220Z,9.80
2022-09-09T03:20:49.495Z,9.80
2022-09-09T03:23:51.375Z,9.90
2022-09-09T03:26:53.502Z,10.00
2022-09-09T03:29:55.471Z,10.10
2022-09-09T03:32:57.790Z,10.00
2022-09-09T03:35:59.672Z,10.00
2022-09-09T03:39:03.844Z,10.00
2022-09-09T03:42:07.789Z,10.00
2022-09-09T03:45:11.634Z,10.10
2022-09-09T03:48:13.681Z,10.10
2022-09-09T03:51:17.010Z,10.00
2022-09-09T03:54:18.760Z,10.00
2022-09-09T03:57:21.418Z,10.00
2022-09-09T04:00:23.315Z,10.00
2022-09-09T04:03:28.223Z,10.00
2022-09-09T04:06:31.130Z,10.00
2022-09-09T04:09:32.939Z,10.10
2022-09-09T04:12:35.804Z,10.10
2022-09-09T04:15:37.678Z,10.20
2022-09-09T04:18:40.033Z,10.30
2022-09-09T04:21:42.819Z,10.40
2022-09-09T04:24:48.674Z,10.40
2022-09-09T04:27:58.471Z,10.40
2022-09-09T04:31:08.937Z,10.50
2022-09-09T04:34:11.043Z,10.50
2022-09-09T04:37:12.986Z,10.70
2022-09-09T04:40:14.993Z,10.80
2022-09-09T04:43:17.178Z,10.80
2022-09-09T04:46:19.052Z,10.80
2022-09-09T04:49:20.930Z,11.00
2022-09-09T04:52:22.767Z,11.20
2022-09-09T04:55:24.645Z,11.30
2022-09-09T04:58:27.553Z,11.40
2022-09-09T05:01:29.423Z,11.50
2022-09-09T05:04:31.276Z,11.60
2022-09-09T05:07:33.388Z,11.70
2022-09-09T05:10:37.615Z,11.80
2022-09-09T05:13:41.479Z,11.80
2022-09-09T05:16:45.404Z,12.00
2022-09-09T05:19:47.429Z,12.10
2022-09-09T05:22:50.455Z,12.30
2022-09-09T05:25:59.507Z,12.40
2022-09-09T05:29:02.224Z,12.40
2022-09-09T05:32:04.924Z,12.30
2022-09-09T05:35:07.093Z,12.40
2022-09-09T05:38:09.430Z,12.70
2022-09-09T05:41:12.401Z,12.90
2022-09-09T05:44:14.510Z,13.00
2022-09-09T05:47:16.379Z,12.90
2022-09-09T05:50:18.264Z,13.20
2022-09-09T05:53:20.160Z,13.50
2022-09-09T05:56:27.043Z,13.60
2022-09-09T05:59:29.438Z,13.40
2022-09-09T06:02:31.539Z,13.40
2022-09-09T06:05:33.776Z,13.70
2022-09-09T06:08:40.636Z,14.20
2022-09-09T06:11:43.161Z,14.50
2022-09-09T06:14:46.479Z,14.80
2022-09-09T06:17:48.546Z,15.10
2022-09-09T06:21:02.155Z,15.30
2022-09-09T06:24:05.568Z,15.20
2022-09-09T06:27:07.611Z,15.20
2022-09-09T06:30:10.770Z,15.30
2022-09-09T06:33:12.665Z,15.40
2022-09-09T06:36:17.246Z,15.60
2022-09-09T06:39:19.091Z,15.80
2022-09-09T06:42:20.896Z,15.60
2022-09-09T06:45:23.504Z,15.80
2022-09-09T06:48:31.972Z,15.70
2022-09-09T06:51:36.800Z,15.90
2022-09-09T06:54:38.653Z,16.10
2022-09-09T06:57:40.532Z,16.30
2022-09-09T07:00:43.285Z,16.80
2022-09-09T07:03:49.199Z,16.80
2022-09-09T07:06:53.550Z,16.70
2022-09-09T07:09:55.666Z,16.70
2022-09-09T07:12:57.498Z,16.70
2022-09-09T07:16:10.501Z,16.60
2022-09-09T07:19:13.869Z,16.80
2022-09-09T07:22:15.989Z,17.10
2022-09-09T07:25:19.015Z,17.30
2022-09-09T07:28:22.057Z,17.30
2022-09-09T07:31:27.201Z,17.40
2022-09-09T07:34:29.180Z,17.80
2022-09-09T07:37:31.041Z,18.10
2022-09-09T07:40:33.107Z,17.70
2022-09-09T07:43:35.177Z,18.00
2022-09-09T07:46:37.962Z,17.70
2022-09-09T07:49:40.075Z,17.90
2022-09-09T07:52:42.151Z,18.40
2022-09-09T07:55:44.305Z,18.30
2022-09-09T07:58:48.020Z,18.40
2022-09-09T08:01:55.552Z,18.20
2022-09-09T08:04:58.856Z,18.30
2022-09-09T08:08:01.398Z,18.30
2022-09-09T08:11:27.893Z,18.50
2022-09-09T08:14:30.692Z,18.70
2022-09-09T08:17:32.558Z,18.70
2022-09-09T08:20:36.410Z,18.90
2022-09-09T08:23:39.304Z,19.00
2022-09-09T08:26:43.711Z,18.80
2022-09-09T08:29:45.670Z,18.70
2022-09-09T08:32:49.619Z,18.90
2022-09-09T08:35:54.270Z,19.40
2022-09-09T08:38:58.584Z,19.70
2022-09-09T08:42:01.695Z,19.80
2022-09-09T08:45:13.146Z,19.60
2022-09-09T08:48:39.848Z,20.10
2022-09-09T08:51:43.082Z,20.50
2022-09-09T08:54:52.049Z,20.60
2022-09-09T08:57:58.009Z,20.10
2022-09-09T09:01:30.106Z,20.00
2022-09-09T09:04:55.209Z,19.70
2022-09-09T09:08:26.401Z,19.60
2022-09-09T09:11:29.067Z,19.60
2022-09-09T09:14:35.400Z,19.80
2022-09-09T09:17:39.774Z,20.20
2022-09-09T09:20:52.886Z,20.40
2022-09-09T09:24:21.179Z,20.30
2022-09-09T09:27:32.900Z,20.40
2022-09-09T09:30:51.423Z,20.10
2022-09-09T09:33:55.825Z,20.10
2022-09-09T09:36:59.667Z,20.40
2022-09-09T09:40:18.973Z,20.50
2022-09-09T09:43:27.516Z,20.30
2022-09-09T09:46:38.924Z,20.40
2022-09-09T09:49:56.312Z,20.60
2022-09-09T09:53:05.101Z,20.10
2022-09-09T09:56:11.239Z,20.40
2022-09-09T09:59:39.593Z,20.40
2022-09-09T10:02:44.659Z,20.40
2022-09-09T10:05:48.044Z,20.40
2022-09-09T10:08:49.950Z,20.10
2022-09-09T10:12:07.569Z,19.90
2022-09-09T10:15:43.714Z,20.00
2022-09-09T10:19:19.281Z,19.70
2022-09-09T10:22:32.128Z,19.50
2022-09-09T10:25:51.841Z,19.40
2022-09-09T10:29:06.967Z,19.30
2022-09-09T10:32:41.928Z,19.30
2022-09-09T10:35:55.155Z,19.30
2022-09-09T10:39:18.075Z,19.10
2022-09-09T10:42:27.336Z,19.10
2022-09-09T10:45:56.142Z,19.20
2022-09-09T10:49:25.894Z,19.20
2022-09-09T10:52:33.924Z,19.20
2022-09-09T10:55:45.081Z,19.30
2022-09-09T10:59:13.369Z,19.30
2022-09-09T11:02:27.768Z,19.10
2022-09-09T11:05:37.933Z,19.10
2022-09-09T11:08:41.375Z,19.10
2022-09-09T11:11:51.266Z,19.30
2022-09-09T11:15:03.486Z,19.20
2022-09-09T11:18:07.875Z,19.30
2022-09-09T11:21:21.307Z,19.40
2022-09-09T11:24:41.780Z,19.20
2022-09-09T11:28:00.755Z,19.30
2022-09-09T11:31:47.654Z,19.30
2022-09-09T11:35:18.426Z,19.30
2022-09-09T11:38:46.379Z,19.10
2022-09-09T11:41:48.245Z,19.10
2022-09-09T11:44:50.465Z,19.20
2022-09-09T11:47:57.199Z,19.30
2022-09-09T11:51:16.700Z,19.60
2022-09-09T11:54:45.639Z,19.80
2022-09-09T11:57:49.673Z,19.60
2022-09-09T12:00:51.773Z,19.80
2022-09-09T12:04:06.481Z,19.90
2022-09-09T12:07:12.317Z,20.10
2022-09-09T12:10:36.417Z,19.90
2022-09-09T12:13:38.468Z,19.90
2022-09-09T12:16:41.225Z,19.70
2022-09-09T12:19:43.416Z,19.60
2022-09-09T12:23:18.036Z,19.30
2022-09-09T12:26:45.565Z,19.30
2022-09-09T12:29:50.235Z,19.20
2022-09-09T12:33:20.087Z,19.30
2022-09-09T12:36:31.757Z,19.20
2022-09-09T12:39:48.604Z,19.20
2022-09-09T12:42:51.359Z,19.20
2022-09-09T12:45:58.947Z,19.20
2022-09-09T12:49:00.954Z,19.20
2022-09-09T12:52:06.656Z,19.10
2022-09-09T12:55:09.764Z,19.10
2022-09-09T12:58:17.969Z,19.10
2022-09-09T13:01:29.524Z,19.00
2022-09-09T13:04:31.436Z,19.00
2022-09-09T13:07:33.429Z,19.00
2022-09-09T13:11:02.974Z,19.00
2022-09-09T13:14:06.220Z,18.90
2022-09-09T13:17:18.348Z,18.80
2022-09-09T13:20:21.641Z,18.80
2022-09-09T13:23:24.152Z,18.90
2022-09-09T13:26:27.959Z,18.80
2022-09-09T13:29:31.427Z,18.80
2022-09-09T13:32:33.348Z,18.70
2022-09-09T13:35:35.649Z,18.70
2022-09-09T13:38:53.591Z,18.80
2022-09-09T13:41:55.890Z,18.60
2022-09-09T13:44:59.423Z,18.50
2022-09-09T13:48:10.378Z,18.40
2022-09-09T13:51:50.023Z,18.40
2022-09-09T13:54:53.379Z,18.40
2022-09-09T13:58:01.729Z,18.30
2022-09-09T14:01:04.117Z,18.10
2022-09-09T14:04:09.640Z,18.10
2022-09-09T14:07:16.576Z,18.00
2022-09-09T14:10:18.536Z,18.00
2022-09-09T14:13:22.104Z,18.00
2022-09-09T14:16:24.000Z,18.00
2022-09-09T14:19:25.925Z,18.00
2022-09-09T14:22:29.551Z,18.10
2022-09-09T14:25:32.309Z,18.10
2022-09-09T14:31:56.434Z,18.00
2022-09-09T14:34:58.523Z,18.00
2022-09-09T14:38:02.077Z,18.20
2022-09-09T14:41:04.708Z,18.20
2022-09-09T14:44:06.546Z,18.20
2022-09-09T14:47:10.074Z,18.10
2022-09-09T14:50:13.755Z,18.00
2022-09-09T14:53:17.982Z,17.90
2022-09-09T14:56:23.098Z,17.90
2022-09-09T14:59:25.090Z,17.90
2022-09-09T15:02:27.043Z,17.90
2022-09-09T15:05:29.153Z,17.90
2022-09-09T15:08:31.126Z,17.90
2022-09-09T15:11:40.052Z,17.80
2022-09-09T15:14:42.027Z,17.80
2022-09-09T15:17:43.923Z,17.80
2022-09-09T15:20:48.878Z,17.80
2022-09-09T15:23:50.967Z,17.80
2022-09-09T15:26:52.824Z,17.90
2022-09-09T15:29:55.298Z,17.90
2022-09-09T15:32:57.155Z,17.90
2022-09-09T15:35:59.134Z,17.80
2022-09-09T15:39:02.338Z,17.80
2022-09-09T15:42:04.221Z,17.70
2022-09-09T15:45:07.033Z,17.70
2022-09-09T15:48:08.894Z,17.60
2022-09-09T15:51:37.604Z,17.50
2022-09-09T15:54:36.055Z,17.50
2022-09-09T15:57:38.040Z,17.40
2022-09-09T16:00:40.461Z,17.40
2022-09-09T16:03:45.687Z,17.40
2022-09-09T16:06:47.783Z,17.30
2022-09-09T16:09:52.392Z,17.30
2022-09-09T16:12:54.582Z,17.30
2022-09-09T16:15:56.478Z,17.20
2022-09-09T16:19:00.620Z,17.20
2022-09-09T16:22:04.026Z,17.30
2022-09-09T16:25:06.832Z,17.20
2022-09-09T16:28:08.734Z,17.30
2022-09-09T16:31:20.260Z,17.20
2022-09-09T16:34:22.612Z,17.10
2022-09-09T16:37:24.519Z,17.10
2022-09-09T16:40:27.075Z,17.00
2022-09-09T16:43:29.044Z,17.00
2022-09-09T16:46:33.150Z,17.00
2022-09-09T16:49:35.222Z,17.00
2022-09-09T16:52:37.042Z,17.00
2022-09-09T16:55:41.031Z,16.90
2022-09-09T16:58:46.824Z,16.90
2022-09-09T17:01:50.609Z,16.90
2022-09-09T17:04:52.515Z,16.90
2022-09-09T17:07:58.431Z,16.90
2022-09-09T17:11:00.320Z,16.90
2022-09-09T17:14:02.363Z,16.90
2022-09-09T17:17:19.283Z,17.00
2022-09-09T17:20:26.905Z,16.90
2022-09-09T17:23:29.543Z,16.90
2022-09-09T17:26:34.176Z,16.90
2022-09-09T17:29:36.995Z,16.90
2022-09-09T17:32:39.122Z,16.90
2022-09-09T17:35:45.222Z,16.80
2022-09-09T17:38:47.969Z,16.80
2022-09-09T17:41:50.047Z,16.90
2022-09-09T17:44:52.000Z,16.80
2022-09-09T17:47:55.889Z,16.60
2022-09-09T17:51:01.187Z,16.60
2022-09-09T17:54:08.593Z,16.60
2022-09-09T17:57:10.638Z,16.40
2022-09-09T18:00:12.936Z,16.20
2022-09-09T18:03:14.970Z,15.80
2022-09-09T18:06:20.809Z,15.80
2022-09-09T18:09:25.530Z,15.60
2022-09-09T18:12:27.920Z,15.50
2022-09-09T18:15:48.839Z,15.60
2022-09-09T18:18:52.757Z,15.50
2022-09-09T18:21:57.470Z,15.40
2022-09-09T18:25:02.532Z,15.30
2022-09-09T18:28:04.460Z,15.20
2022-09-09T18:31:08.231Z,14.80
2022-09-09T18:34:12.878Z,14.90
2022-09-09T18:37:15.416Z,14.70
2022-09-09T18:40:18.370Z,14.60
2022-09-09T18:43:20.249Z,14.40
2022-09-09T18:46:22.995Z,14.20
2022-09-09T18:49:25.144Z,14.10
2022-09-09T18:52:27.346Z,13.80
2022-09-09T18:55:29.215Z,13.80
2022-09-09T18:58:32.657Z,14.00
2022-09-09T19:01:35.794Z,14.00
2022-09-09T19:04:37.883Z,14.10
2022-09-09T19:07:41.446Z,14.00
2022-09-09T19:10:43.477Z,13.90
2022-09-09T19:13:54.019Z,13.70
2022-09-09T19:16:56.474Z,13.70
2022-09-09T19:19:58.457Z,13.70
2022-09-09T19:23:00.437Z,13.60
2022-09-09T19:26:03.600Z,13.30
2022-09-09T19:29:05.537Z,13.20
2022-09-09T19:35:30.174Z,13.20
2022-09-09T19:38:32.655Z,13.30
2022-09-09T19:41:35.073Z,13.30
2022-09-09T19:44:36.897Z,13.30
2022-09-09T19:47:39.210Z,13.20
2022-09-09T19:50:41.401Z,13.40
2022-09-09T19:53:45.925Z,13.30
2022-09-09T19:56:47.787Z,13.20
2022-09-09T19:59:49.889Z,13.20
2022-09-09T20:03:15.184Z,13.20
2022-09-09T20:06:16.135Z,13.00
2022-09-09T20:09:19.599Z,13.10
2022-09-09T20:12:21.482Z,13.00
2022-09-09T20:15:23.439Z,12.80
2022-09-09T20:18:27.992Z,12.90
2022-09-09T20:21:31.940Z,12.90
2022-09-09T20:24:33.874Z,13.00
2022-09-09T20:27:35.708Z,12.80
2022-09-09T20:30:38.377Z,13.00
2022-09-09T20:33:41.498Z,12.90
2022-09-09T20:36:44.225Z,12.90
2022-09-09T20:39:46.516Z,12.70
2022-09-09T20:42:48.704Z,12.90
2022-09-09T20:45:50.655Z,12.80
2022-09-09T20:49:00.792Z,12.80
2022-09-09T20:52:04.646Z,12.80
2022-09-09T20:55:07.650Z,12.90
2022-09-09T20:58:09.836Z,12.80
2022-09-09T21:01:16.604Z,12.70
2022-09-09T21:04:19.921Z,12.60
2022-09-09T21:07:21.664Z,12.60
2022-09-09T21:10:23.525Z,12.70
2022-09-09T21:13:26.006Z,12.70
2022-09-09T21:16:31.478Z,12.50
2022-09-09T21:19:33.328Z,12.50
2022-09-09T21:22:35.229Z,12.50
2022-09-09T21:25:37.432Z,12.40
2022-09-09T21:28:39.763Z,12.50
2022-09-09T21:31:43.553Z,12.40
2022-09-09T21:34:45.914Z,12.30
2022-09-09T21:37:49.547Z,12.20
2022-09-09T21:40:52.291Z,12.20
2022-09-09T21:43:54.696Z,12.10
2022-09-09T21:46:56.592Z,12.00
2022-09-09T21:49:58.503Z,12.00
2022-09-09T21:53:00.324Z,12.10
2022-09-09T21:56:05.781Z,11.90
2022-09-09T21:59:08.157Z,12.00
2022-09-09T22:02:10.832Z,11.90
2022-09-09T22:05:13.125Z,12.00
2022-09-09T22:08:17.939Z,12.10
2022-09-09T22:11:22.559Z,12.10
2022-09-09T22:14:24.719Z,12.10
2022-09-09T22:17:26.702Z,12.00
2022-09-09T22:20:29.656Z,12.10
2022-09-09T22:23:31.642Z,12.10
2022-09-09T22:26:36.705Z,12.00
2022-09-09T22:29:41.940Z,12.00
2022-09-09T22:32:43.816Z,12.10
2022-09-09T22:35:45.655Z,12.00
2022-09-09T22:38:50.433Z,12.00
2022-09-09T22:41:52.229Z,11.90
2022-09-09T22:44:54.120Z,11.90
2022-09-09T22:47:57.093Z,11.80
2022-09-09T22:51:11.114Z,11.80
2022-09-09T22:54:12.940Z,11.90
2022-09-09T22:57:14.833Z,11.80
2022-09-09T23:00:16.818Z,11.70
2022-09-09T23:03:22.654Z,11.70
2022-09-09T23:06:26.954Z,11.70
2022-09-09T23:09:28.998Z,11.70
2022-09-09T23:12:30.942Z,11.60
2022-09-09T23:15:32.793Z,11.70
2022-09-09T23:18:34.655Z,11.60
2022-09-09T23:21:38.563Z,11.80
2022-09-09T23:24:41.327Z,11.50
2022-09-09T23:27:43.527Z,11.40
2022-09-09T23:30:47.477Z,11.40
2022-09-09T23:33:49.733Z,11.30
2022-09-09T23:36:51.869Z,11.30
2022-09-09T23:39:53.747Z,11.30
2022-09-09T23:42:55.679Z,11.30
2022-09-09T23:45:57.770Z,11.40
2022-09-09T23:49:00.271Z,11.40
2022-09-09T23:52:05.450Z,11.30
2022-09-09T23:55:08.674Z,11.20
2022-09-09T23:58:10.924Z,11.20
